Date,TemperatureHighF,TemperatureAvgF,TemperatureLowF,DewpointHighF,DewpointAvgF,DewpointLowF,HumidityHigh,HumidityAvg,HumidityLow,PressureMaxIn,PressureMinIn,WindSpeedMaxMPH,WindSpeedAvgMPH,GustSpeedMaxMPH,PrecipitationSumIn
2013-2-1,38.8,36.1,27.3,31.8,29.6,25.8,95,77,68,29.81,29.50,10,4,18,0.01
2013-2-2,39.4,37.4,36.3,31.3,30.5,29.6,79,76,72,29.51,29.16,12,5,24,0.00
2013-2-3,41.0,35.5,31.3,30.9,28.5,25.6,82,76,65,29.35,29.09,14,3,24,0.00
2013-2-4,37.2,34.2,31.8,29.6,27.5,24.8,90,77,64,29.54,29.35,9,3,24,0.00
2013-2-5,39.9,32.2,27.5,29.3,25.1,21.6,85,75,61,29.54,29.40,9,3,13,0.00
2013-2-6,28.2,23.1,19.6,25.7,20.6,17.0,95,90,81,29.54,29.38,10,3,19,0.00
2013-2-7,34.9,28.3,21.1,28.8,23.7,17.8,94,83,68,29.49,29.14,12,4,21,0.00
2013-2-8,34.4,30.8,27.3,29.2,27.5,25.8,96,88,77,29.62,29.31,9,2,18,0.00
2013-2-9,38.7,34.7,30.9,32.2,30.0,27.1,93,83,73,29.52,28.81,18,7,28,0.13
2013-2-10,37.1,30.1,23.5,31.6,27.5,19.4,95,90,76,29.46,28.81,20,6,33,0.03
2013-2-11,28.5,21.5,15.8,21.1,11.0,-9.2,86,67,22,29.64,29.46,18,5,22,0.00
2013-2-12,32.7,29.4,25.1,26.5,24.2,20.7,94,81,73,29.64,29.55,7,4,16,0.00
2013-2-13,35.0,29.0,22.9,27.9,25.2,21.7,95,86,70,29.70,29.44,19,4,26,0.00
2013-2-14,37.1,30.6,25.9,29.9,26.2,23.1,96,84,68,29.45,29.04,19,5,26,0.00
2013-2-15,27.2,20.7,15.4,26.0,17.5,10.3,95,87,76,29.91,29.43,13,6,22,0.00
2013-2-16,28.9,20.9,14.8,23.3,12.5,3.8,84,71,45,29.95,29.54,10,3,18,0.00
2013-2-17,29.5,23.6,17.5,22.8,19.0,14.5,90,83,71,29.67,29.43,9,4,13,0.00
2013-2-18,20.4,15.7,10.0,14.9,2.3,-3.5,79,55,41,29.79,29.66,13,6,19,0.00
2013-2-19,30.4,21.9,9.9,24.1,14.0,1.5,84,72,52,29.72,29.04,11,4,20,0.00
2013-2-20,33.7,26.9,22.6,26.8,22.3,19.8,95,83,71,29.16,28.88,14,4,20,0.00
2013-2-21,25.6,23.3,18.9,23.3,21.5,17.0,95,93,89,29.16,29.03,5,1,18,0.00
2013-2-22,19.5,17.7,15.2,17.1,13.7,10.9,93,84,72,29.32,29.16,12,6,18,0.00
2013-2-23,29.6,29.6,29.6,24.2,24.2,24.2,80,80,80,29.02,29.02,5,5,5,0.00
2013-2-24,32.3,29.6,27.1,29.2,25.4,22.1,93,84,72,29.51,29.21,5,3,11,0.00
2013-2-25,34.5,32.0,28.7,26.7,25.0,20.9,84,75,67,29.52,29.33,15,4,21,0.00
2013-2-26,37.9,33.3,30.4,27.1,25.0,22.9,83,71,62,29.34,29.10,12,5,22,0.02
2013-2-27,36.9,31.1,27.1,28.5,25.7,20.3,93,81,68,29.16,29.00,16,5,22,0.00
2013-2-28,32.7,28.8,26.2,28.4,25.8,23.7,96,88,78,29.33,29.16,12,3,19,0.00